createdAt,value
2022-11-23T00:00:39.627Z,9.77
2022-11-23T00:03:07.511Z,9.56
2022-11-23T00:05:35.712Z,9.52
2022-11-23T00:08:03.607Z,9.60
2022-11-23T00:10:32.898Z,9.51
2022-11-23T00:13:00.760Z,9.59
2022-11-23T00:15:28.627Z,9.38
2022-11-23T00:17:56.499Z,9.34
2022-11-23T00:20:24.354Z,9.46
2022-11-23T00:22:52.277Z,9.54
2022-11-23T00:25:20.150Z,9.54
2022-11-23T00:27:49.382Z,9.49
2022-11-23T00:30:17.756Z,9.37
2022-11-23T00:32:45.617Z,9.37
2022-11-23T00:35:13.521Z,9.32
2022-11-23T00:37:41.387Z,9.31
2022-11-23T00:40:10.815Z,9.17
2022-11-23T00:42:38.665Z,9.38
2022-11-23T00:45:09.188Z,9.53
2022-11-23T00:47:37.021Z,9.58
2022-11-23T00:50:05.299Z,9.58
2022-11-23T00:52:33.171Z,9.54
2022-11-23T00:55:01.035Z,9.40
2022-11-23T00:57:28.883Z,9.53
2022-11-23T00:59:56.790Z,9.54
2022-11-23T01:02:26.112Z,9.52
2022-11-23T01:04:54.097Z,9.47
2022-11-23T01:07:22.054Z,9.51
2022-11-23T01:09:50.030Z,9.57
2022-11-23T01:12:17.928Z,9.62
2022-11-23T01:14:45.859Z,9.63
2022-11-23T01:17:13.817Z,9.59
2022-11-23T01:19:43.125Z,9.34
2022-11-23T01:22:11.053Z,9.27
2022-11-23T01:24:38.996Z,9.38
2022-11-23T01:27:06.903Z,9.39
2022-11-23T01:29:35.061Z,9.75
2022-11-23T01:32:03.288Z,9.89
2022-11-23T01:34:31.207Z,9.97
2022-11-23T01:37:00.813Z,10.09
2022-11-23T01:39:28.812Z,10.21
2022-11-23T01:41:56.855Z,10.24
2022-11-23T01:44:30.574Z,10.22
2022-11-23T01:47:00.604Z,10.23
2022-11-23T01:49:32.067Z,10.28
2022-11-23T01:52:05.188Z,10.34
2022-11-23T01:54:38.017Z,10.55
2022-11-23T01:57:09.236Z,10.62
2022-11-23T01:59:37.751Z,10.44
2022-11-23T02:02:06.443Z,10.56
2022-11-23T02:04:38.302Z,10.45
2022-11-23T02:07:08.363Z,10.32
2022-11-23T02:09:37.458Z,10.54
2022-11-23T02:12:11.665Z,10.52
2022-11-23T02:14:39.677Z,10.64
2022-11-23T02:17:07.737Z,10.69
2022-11-23T02:19:47.699Z,10.68
2022-11-23T02:22:25.277Z,10.73
2022-11-23T02:24:56.369Z,10.81
2022-11-23T02:27:26.296Z,10.76
2022-11-23T02:29:56.976Z,10.72
2022-11-23T02:32:26.116Z,10.70
2022-11-23T02:34:54.080Z,10.59
2022-11-23T02:37:22.283Z,10.58
2022-11-23T02:39:52.328Z,10.63
2022-11-23T02:42:20.554Z,10.67
2022-11-23T02:44:57.748Z,10.70
2022-11-23T02:47:25.845Z,10.59
2022-11-23T02:49:53.841Z,10.59
2022-11-23T02:52:21.798Z,10.66
2022-11-23T02:54:49.772Z,10.51
2022-11-23T02:57:17.852Z,10.54
2022-11-23T02:59:45.760Z,10.50
2022-11-23T03:02:15.081Z,10.36
2022-11-23T03:04:43.011Z,10.47
2022-11-23T03:07:11.011Z,10.38
2022-11-23T03:09:39.006Z,10.31
2022-11-23T03:12:07.419Z,10.43
2022-11-23T03:14:35.367Z,10.52
2022-11-23T03:17:03.279Z,10.47
2022-11-23T03:19:32.955Z,10.31
2022-11-23T03:22:01.055Z,10.19
2022-11-23T03:24:28.987Z,10.15
2022-11-23T03:26:57.020Z,10.18
2022-11-23T03:29:26.611Z,10.21
2022-11-23T03:31:54.688Z,10.20
2022-11-23T03:34:22.633Z,10.26
2022-11-23T03:36:52.024Z,10.25
2022-11-23T03:39:19.956Z,10.30
2022-11-23T03:41:47.919Z,10.33
2022-11-23T03:44:15.823Z,10.41
2022-11-23T03:46:43.732Z,10.29
2022-11-23T03:49:11.914Z,10.19
2022-11-23T03:51:39.837Z,10.19
2022-11-23T03:54:09.472Z,10.18
2022-11-23T03:56:37.451Z,10.25
2022-11-23T03:59:05.392Z,10.29
2022-11-23T04:01:33.348Z,10.54
2022-11-23T04:04:01.273Z,10.42
2022-11-23T04:06:29.218Z,10.41
2022-11-23T04:09:01.734Z,10.35
2022-11-23T04:11:31.692Z,10.37
2022-11-23T04:13:59.641Z,10.44
2022-11-23T04:16:27.559Z,10.34
2022-11-23T04:18:55.521Z,10.46
2022-11-23T04:21:23.447Z,10.48
2022-11-23T04:23:51.402Z,10.61
2022-11-23T04:26:19.300Z,10.66
2022-11-23T04:28:48.580Z,10.66
2022-11-23T04:31:16.492Z,10.73
2022-11-23T04:33:44.405Z,10.78
2022-11-23T04:36:12.534Z,10.75
2022-11-23T04:38:40.473Z,10.78
2022-11-23T04:41:08.407Z,10.66
2022-11-23T04:43:36.340Z,10.73
2022-11-23T04:46:05.910Z,10.67
2022-11-23T04:48:33.830Z,10.73
2022-11-23T04:51:01.799Z,10.55
2022-11-23T04:53:29.730Z,10.65
2022-11-23T04:55:57.739Z,10.82
2022-11-23T04:58:26.903Z,10.80
2022-11-23T05:00:58.348Z,10.89
2022-11-23T05:03:28.317Z,10.96
2022-11-23T05:05:59.191Z,10.83
2022-11-23T05:08:27.165Z,10.82
2022-11-23T05:10:55.155Z,10.78
2022-11-23T05:13:23.125Z,10.83
2022-11-23T05:15:51.256Z,10.80
2022-11-23T05:18:19.172Z,10.85
2022-11-23T05:20:48.556Z,10.92
2022-11-23T05:23:16.648Z,10.89
2022-11-23T05:25:44.673Z,10.96
2022-11-23T05:28:39.125Z,10.90
2022-11-23T05:31:05.692Z,10.88
2022-11-23T05:33:33.768Z,10.89
2022-11-23T05:36:03.071Z,10.89
2022-11-23T05:38:31.003Z,10.90
2022-11-23T05:40:58.953Z,10.90
2022-11-23T05:43:27.021Z,10.84
2022-11-23T05:45:54.946Z,10.79
2022-11-23T05:48:22.868Z,10.80
2022-11-23T05:50:51.733Z,10.79
2022-11-23T05:53:21.173Z,10.81
2022-11-23T05:55:49.103Z,10.70
2022-11-23T05:58:17.036Z,10.61
2022-11-23T06:00:44.949Z,10.72
2022-11-23T06:03:12.955Z,10.78
2022-11-23T06:05:40.888Z,10.76
2022-11-23T06:08:08.872Z,10.81
2022-11-23T06:10:38.160Z,10.89
2022-11-23T06:13:06.122Z,10.92
2022-11-23T06:15:34.041Z,10.95
2022-11-23T06:18:02.498Z,10.95
2022-11-23T06:20:30.751Z,10.86
2022-11-23T06:22:58.672Z,10.86
2022-11-23T06:25:26.595Z,10.78
2022-11-23T06:28:00.160Z,10.73
2022-11-23T06:30:29.884Z,10.70
2022-11-23T06:32:58.318Z,10.78
2022-11-23T06:35:26.280Z,10.93
2022-11-23T06:37:54.913Z,10.98
2022-11-23T06:40:23.054Z,11.00
2022-11-23T06:42:51.080Z,11.01
2022-11-23T06:45:21.479Z,10.82
2022-11-23T06:47:49.363Z,10.77
2022-11-23T06:50:17.585Z,10.86
2022-11-23T06:52:45.505Z,10.97
2022-11-23T06:55:13.428Z,10.88
2022-11-23T06:57:41.468Z,10.84
2022-11-23T07:00:11.681Z,11.01
2022-11-23T07:02:41.002Z,11.02
2022-11-23T07:05:09.712Z,11.11
2022-11-23T07:07:37.794Z,11.16
2022-11-23T07:10:07.572Z,10.98
2022-11-23T07:12:35.652Z,10.91
2022-11-23T07:15:03.631Z,10.94
2022-11-23T07:17:31.540Z,10.93
2022-11-23T07:20:01.142Z,10.93
2022-11-23T07:22:29.126Z,10.83
2022-11-23T07:24:57.033Z,10.97
2022-11-23T07:27:24.962Z,10.92
2022-11-23T07:29:52.928Z,11.01
2022-11-23T07:32:20.868Z,11.07
2022-11-23T07:34:48.863Z,11.17
2022-11-23T07:37:18.149Z,11.25
2022-11-23T07:40:01.799Z,11.23
2022-11-23T07:42:34.624Z,11.24
2022-11-23T07:45:04.562Z,11.34
2022-11-23T07:47:32.885Z,11.47
2022-11-23T07:50:00.820Z,11.52
2022-11-23T07:52:30.127Z,11.57
2022-11-23T07:54:58.100Z,11.64
2022-11-23T07:57:26.028Z,11.66
2022-11-23T07:59:53.975Z,11.60
2022-11-23T08:02:22.334Z,11.63
2022-11-23T08:04:50.327Z,11.69
2022-11-23T08:07:18.297Z,11.81
2022-11-23T08:09:47.640Z,11.74
2022-11-23T08:12:15.566Z,11.77
2022-11-23T08:14:43.804Z,11.75
2022-11-23T08:17:11.740Z,11.84
2022-11-23T08:19:39.785Z,11.88
2022-11-23T08:22:07.831Z,11.81
2022-11-23T08:24:35.808Z,11.92
2022-11-23T08:27:05.194Z,11.90
2022-11-23T08:29:33.129Z,11.99
2022-11-23T08:32:01.067Z,12.09
2022-11-23T08:34:29.432Z,12.21
2022-11-23T08:36:58.261Z,12.31
2022-11-23T08:39:26.225Z,12.35
2022-11-23T08:41:54.277Z,12.26
2022-11-23T08:44:23.560Z,12.29
2022-11-23T08:46:51.669Z,12.34
2022-11-23T08:49:19.677Z,12.31
2022-11-23T08:51:50.234Z,12.28
2022-11-23T08:54:18.463Z,12.07
2022-11-23T08:56:46.409Z,12.22
2022-11-23T08:59:14.420Z,12.33
2022-11-23T09:01:43.794Z,12.42
2022-11-23T09:04:16.379Z,12.47
2022-11-23T09:06:47.171Z,12.49
2022-11-23T09:09:15.099Z,12.53
2022-11-23T09:11:43.021Z,12.60
2022-11-23T09:14:11.033Z,12.62
2022-11-23T09:16:38.964Z,12.63
2022-11-23T09:19:08.383Z,12.68
2022-11-23T09:21:39.233Z,12.64
2022-11-23T09:24:07.643Z,12.59
2022-11-23T09:26:37.669Z,12.55
2022-11-23T09:29:05.820Z,12.66
2022-11-23T09:31:33.885Z,12.67
2022-11-23T09:34:01.831Z,12.75
2022-11-23T09:36:31.420Z,12.95
2022-11-23T09:38:59.420Z,13.00
2022-11-23T09:42:03.401Z,12.99
2022-11-23T09:44:40.217Z,12.87
2022-11-23T09:47:29.818Z,12.75
2022-11-23T09:50:04.481Z,12.68
2022-11-23T09:52:35.065Z,12.68
2022-11-23T09:55:12.369Z,12.63
2022-11-23T09:57:44.597Z,12.60
2022-11-23T10:00:20.434Z,12.65
2022-11-23T10:02:48.889Z,12.62
2022-11-23T10:05:19.761Z,12.72
2022-11-23T10:08:03.470Z,12.65
2022-11-23T10:10:41.984Z,12.60
2022-11-23T10:13:29.033Z,12.59
2022-11-23T10:16:11.281Z,12.62
2022-11-23T10:18:49.989Z,12.74
2022-11-23T10:21:25.105Z,12.74
2022-11-23T10:24:05.723Z,12.81
2022-11-23T10:26:37.866Z,12.87
2022-11-23T10:29:14.293Z,12.89
2022-11-23T10:31:46.950Z,12.93
2022-11-23T10:34:18.353Z,12.81
2022-11-23T10:36:46.479Z,12.90
2022-11-23T10:39:25.016Z,13.10
2022-11-23T10:41:54.177Z,13.19
2022-11-23T10:44:31.961Z,13.24
2022-11-23T10:47:00.887Z,13.32
2022-11-23T10:49:30.377Z,13.41
2022-11-23T10:52:00.659Z,13.39
2022-11-23T10:54:36.483Z,13.51
2022-11-23T10:57:22.918Z,13.53
2022-11-23T11:00:00.203Z,13.57
2022-11-23T11:02:29.241Z,13.60
2022-11-23T11:05:16.542Z,13.73
2022-11-23T11:07:44.629Z,13.77
2022-11-23T11:10:39.582Z,13.78
2022-11-23T11:13:23.449Z,13.88
2022-11-23T11:15:56.211Z,13.95
2022-11-23T11:18:28.863Z,13.94
2022-11-23T11:21:00.392Z,13.91
2022-11-23T11:23:30.905Z,13.86
2022-11-23T11:26:09.532Z,13.92
2022-11-23T11:28:41.897Z,13.98
2022-11-23T11:31:31.426Z,13.99
2022-11-23T11:34:05.786Z,14.02
2022-11-23T11:36:40.476Z,13.93
2022-11-23T11:39:19.324Z,14.08
2022-11-23T11:41:52.648Z,13.97
2022-11-23T11:44:23.774Z,14.02
2022-11-23T11:46:59.113Z,14.05
2022-11-23T11:49:32.548Z,13.92
2022-11-23T11:52:06.171Z,14.06
2022-11-23T11:54:41.082Z,14.05
2022-11-23T11:57:19.280Z,14.10
2022-11-23T11:59:50.368Z,14.09
2022-11-23T12:02:25.384Z,14.10
2022-11-23T12:05:05.115Z,14.06
2022-11-23T12:07:36.238Z,14.08
2022-11-23T12:10:10.889Z,14.11
2022-11-23T12:12:41.048Z,14.18
2022-11-23T12:15:47.169Z,14.27
2022-11-23T12:18:48.677Z,14.20
2022-11-23T12:21:35.569Z,14.15
2022-11-23T12:24:11.746Z,14.19
2022-11-23T12:26:52.055Z,14.01
2022-11-23T12:29:46.930Z,13.87
2022-11-23T12:32:26.218Z,13.86
2022-11-23T12:35:13.657Z,13.80
2022-11-23T12:37:54.223Z,13.73
2022-11-23T12:40:41.618Z,13.74
2022-11-23T12:43:15.052Z,13.59
2022-11-23T12:46:08.254Z,13.50
2022-11-23T12:48:47.293Z,13.54
2022-11-23T12:51:25.554Z,13.47
2022-11-23T12:54:08.657Z,13.38
2022-11-23T12:56:55.832Z,13.36
2022-11-23T12:59:26.104Z,13.32
2022-11-23T13:02:01.280Z,13.23
2022-11-23T13:04:58.211Z,13.12
2022-11-23T13:07:50.093Z,13.00
2022-11-23T13:10:38.379Z,12.83
2022-11-23T13:13:38.203Z,12.77
2022-11-23T13:16:38.393Z,12.80
2022-11-23T13:19:32.031Z,12.86
2022-11-23T13:22:01.067Z,12.90
2022-11-23T13:24:31.549Z,12.83
2022-11-23T13:27:32.326Z,12.96
2022-11-23T13:30:08.450Z,12.91
2022-11-23T13:32:47.590Z,12.81
2022-11-23T13:35:52.078Z,12.92
2022-11-23T13:38:26.526Z,12.90
2022-11-23T13:40:55.064Z,12.78
2022-11-23T13:43:26.424Z,12.69
2022-11-23T13:46:24.142Z,12.81
2022-11-23T13:48:57.822Z,12.86
2022-11-23T13:51:30.394Z,12.89
2022-11-23T13:54:03.544Z,12.93
2022-11-23T13:56:34.833Z,12.93
2022-11-23T13:59:29.050Z,12.93
2022-11-23T14:02:28.377Z,12.93
2022-11-23T14:05:29.440Z,12.92
2022-11-23T14:08:02.847Z,12.89
2022-11-23T14:10:32.722Z,12.72
2022-11-23T14:13:06.252Z,12.86
2022-11-23T14:15:36.805Z,12.80
2022-11-23T14:18:31.469Z,12.84
2022-11-23T14:21:05.306Z,12.71
2022-11-23T14:24:02.220Z,12.60
2022-11-23T14:26:39.363Z,12.65
2022-11-23T14:29:30.979Z,12.53
2022-11-23T14:32:22.898Z,12.50
2022-11-23T14:34:59.549Z,12.53
2022-11-23T14:37:37.736Z,12.49
2022-11-23T14:40:18.747Z,12.54
2022-11-23T14:42:53.697Z,12.45
2022-11-23T14:45:24.396Z,12.43
2022-11-23T14:47:52.381Z,12.45
2022-11-23T14:50:26.444Z,12.52
2022-11-23T14:52:54.797Z,12.54
2022-11-23T14:55:26.726Z,12.42
2022-11-23T14:57:58.896Z,12.52
2022-11-23T15:00:33.375Z,12.52
2022-11-23T15:03:34.416Z,12.44
2022-11-23T15:06:05.886Z,12.54
2022-11-23T15:08:41.955Z,12.54
2022-11-23T15:11:15.414Z,12.50
2022-11-23T15:13:45.809Z,12.52
2022-11-23T15:16:15.882Z,12.45
2022-11-23T15:18:44.864Z,12.47
2022-11-23T15:21:26.622Z,12.31
2022-11-23T15:23:58.029Z,12.19
2022-11-23T15:26:47.435Z,12.40
2022-11-23T15:29:52.384Z,12.49
2022-11-23T15:32:35.304Z,12.42
2022-11-23T15:35:08.103Z,12.46
2022-11-23T15:37:44.021Z,12.50
2022-11-23T15:40:14.962Z,12.48
2022-11-23T15:42:45.495Z,12.44
2022-11-23T15:45:36.402Z,12.50
2022-11-23T15:48:06.353Z,12.50
2022-11-23T15:50:34.545Z,12.37
2022-11-23T15:53:03.292Z,12.14
2022-11-23T15:55:31.836Z,12.13
2022-11-23T15:58:07.706Z,12.28
2022-11-23T16:00:35.959Z,12.27
2022-11-23T16:03:29.799Z,12.25
2022-11-23T16:06:17.073Z,12.20
2022-11-23T16:08:45.211Z,12.18
2022-11-23T16:11:28.870Z,12.12
2022-11-23T16:17:02.852Z,12.10
2022-11-23T16:19:33.814Z,12.08
2022-11-23T16:22:06.036Z,12.03
2022-11-23T16:24:37.283Z,12.10
2022-11-23T16:27:14.245Z,12.13
2022-11-23T16:29:43.234Z,12.15
2022-11-23T16:32:26.054Z,12.17
2022-11-23T16:34:54.392Z,12.16
2022-11-23T16:37:23.129Z,11.93
2022-11-23T16:39:51.314Z,11.91
2022-11-23T16:42:19.901Z,12.03
2022-11-23T16:44:47.973Z,12.10
2022-11-23T16:47:25.900Z,11.96
2022-11-23T16:49:54.779Z,12.07
2022-11-23T16:52:24.010Z,12.11
2022-11-23T16:54:52.913Z,12.09
2022-11-23T16:57:30.268Z,12.08
2022-11-23T16:59:59.706Z,11.94
2022-11-23T17:02:29.347Z,12.03
2022-11-23T17:04:57.919Z,12.07
2022-11-23T17:07:26.112Z,12.02
2022-11-23T17:09:54.218Z,12.09
2022-11-23T17:12:22.397Z,12.13
2022-11-23T17:14:51.636Z,12.16
2022-11-23T17:17:22.423Z,12.12
2022-11-23T17:19:52.289Z,12.18
2022-11-23T17:22:21.497Z,12.15
2022-11-23T17:24:51.637Z,12.17
2022-11-23T17:27:23.202Z,12.07
2022-11-23T17:29:57.179Z,12.06
2022-11-23T17:32:25.337Z,12.12
2022-11-23T17:34:55.072Z,12.06
2022-11-23T17:37:25.324Z,12.12
2022-11-23T17:39:53.449Z,12.17
2022-11-23T17:42:22.072Z,12.14
2022-11-23T17:44:50.348Z,12.11
2022-11-23T17:47:24.079Z,11.85
2022-11-23T17:49:52.228Z,11.98
2022-11-23T17:52:21.811Z,12.04
2022-11-23T17:54:49.982Z,11.67
2022-11-23T17:57:20.280Z,11.45
2022-11-23T17:59:48.426Z,11.43
2022-11-23T18:02:16.843Z,11.30
2022-11-23T18:04:45.408Z,11.39
2022-11-23T18:07:15.410Z,11.64
2022-11-23T18:09:45.030Z,11.68
2022-11-23T18:12:13.316Z,11.78
2022-11-23T18:14:41.684Z,11.79
2022-11-23T18:17:09.832Z,11.59
2022-11-23T18:19:37.964Z,11.47
2022-11-23T18:22:06.404Z,11.65
2022-11-23T18:24:34.682Z,11.71
2022-11-23T18:27:04.612Z,11.76
2022-11-23T18:29:33.208Z,11.81
2022-11-23T18:32:02.353Z,11.83
2022-11-23T18:34:30.578Z,11.75
2022-11-23T18:36:59.128Z,11.72
2022-11-23T18:39:27.197Z,11.85
2022-11-23T18:41:58.871Z,11.86
2022-11-23T18:44:31.213Z,11.90
2022-11-23T18:46:59.653Z,11.82
2022-11-23T18:49:28.043Z,11.66
2022-11-23T18:51:56.503Z,11.73
2022-11-23T18:54:24.673Z,11.73
2022-11-23T18:56:53.415Z,11.82
2022-11-23T19:02:13.827Z,11.86
2022-11-23T19:04:42.024Z,11.72
2022-11-23T19:07:10.628Z,11.74
2022-11-23T19:09:39.241Z,11.78
2022-11-23T19:12:09.029Z,11.69
2022-11-23T19:14:37.470Z,11.58
2022-11-23T19:17:05.605Z,11.65
2022-11-23T19:19:35.825Z,11.51
2022-11-23T19:22:04.161Z,11.63
2022-11-23T19:24:32.478Z,11.70
2022-11-23T19:27:00.872Z,11.72
2022-11-23T19:29:29.529Z,11.65
2022-11-23T19:31:57.990Z,11.64
2022-11-23T19:34:25.990Z,11.71
2022-11-23T19:36:55.669Z,11.64
2022-11-23T19:39:24.333Z,11.63
2022-11-23T19:41:52.658Z,11.60
2022-11-23T19:44:20.845Z,11.68
2022-11-23T19:46:49.075Z,11.79
2022-11-23T19:49:17.778Z,11.78
2022-11-23T19:51:47.718Z,11.71
2022-11-23T19:54:18.032Z,11.75
2022-11-23T19:56:46.213Z,11.74
2022-11-23T19:59:14.670Z,11.79
2022-11-23T20:01:42.843Z,11.79
2022-11-23T20:04:12.119Z,11.60
2022-11-23T20:06:42.730Z,11.56
2022-11-23T20:09:12.825Z,11.52
2022-11-23T20:11:46.852Z,11.66
2022-11-23T20:14:18.370Z,11.74
2022-11-23T20:16:47.753Z,11.78
2022-11-23T20:19:15.959Z,11.75
2022-11-23T20:21:44.153Z,11.76
2022-11-23T20:24:14.364Z,11.76
2022-11-23T20:26:44.553Z,11.78
2022-11-23T20:29:14.068Z,11.63
2022-11-23T20:31:42.660Z,11.55
2022-11-23T20:34:16.694Z,11.76
2022-11-23T20:36:48.063Z,11.81
2022-11-23T20:39:16.594Z,11.85
2022-11-23T20:41:49.453Z,11.76
2022-11-23T20:44:17.625Z,11.78
2022-11-23T20:47:01.240Z,11.81
2022-11-23T20:49:31.577Z,11.80
2022-11-23T20:51:59.888Z,11.83
2022-11-23T20:54:28.187Z,11.82
2022-11-23T20:57:00.386Z,11.80
2022-11-23T20:59:28.736Z,11.52
2022-11-23T21:01:56.886Z,11.49
2022-11-23T21:04:25.218Z,11.68
2022-11-23T21:06:53.480Z,11.61
2022-11-23T21:09:21.546Z,11.76
2022-11-23T21:12:07.023Z,11.79
2022-11-23T21:14:37.124Z,11.66
2022-11-23T21:17:06.510Z,11.76
2022-11-23T21:19:36.329Z,11.64
2022-11-23T21:22:06.423Z,11.48
2022-11-23T21:24:35.561Z,11.65
2022-11-23T21:27:04.678Z,11.61
2022-11-23T21:29:33.610Z,11.70
2022-11-23T21:32:03.255Z,11.80
2022-11-23T21:34:32.611Z,11.80
2022-11-23T21:37:01.272Z,11.73
2022-11-23T21:39:31.236Z,11.82
2022-11-23T21:41:59.836Z,11.85
2022-11-23T21:44:28.028Z,11.73
2022-11-23T21:46:56.260Z,11.64
2022-11-23T21:49:27.926Z,11.78
2022-11-23T21:51:56.046Z,11.72
2022-11-23T21:54:24.739Z,11.82
2022-11-23T21:56:52.815Z,11.84
2022-11-23T21:59:20.915Z,11.85
2022-11-23T22:01:49.249Z,11.86
2022-11-23T22:04:17.410Z,11.85
2022-11-23T22:06:46.974Z,11.85
2022-11-23T22:09:15.088Z,11.74
2022-11-23T22:11:44.422Z,11.76
2022-11-23T22:14:14.059Z,11.72
2022-11-23T22:16:43.875Z,11.74
2022-11-23T22:19:13.176Z,11.60
2022-11-23T22:21:43.365Z,11.57
2022-11-23T22:24:15.307Z,11.70
2022-11-23T22:26:43.781Z,11.74
2022-11-23T22:29:11.947Z,11.74
2022-11-23T22:31:40.436Z,11.73
2022-11-23T22:34:11.464Z,11.72
2022-11-23T22:36:39.763Z,11.68
2022-11-23T22:39:09.144Z,11.35
2022-11-23T22:41:39.103Z,11.53
2022-11-23T22:44:08.592Z,11.57
2022-11-23T22:46:39.071Z,11.59
2022-11-23T22:49:07.875Z,11.56
2022-11-23T22:51:36.570Z,11.57
2022-11-23T22:54:05.180Z,11.64
2022-11-23T22:56:33.602Z,11.64
2022-11-23T22:59:03.497Z,11.61
2022-11-23T23:01:32.416Z,11.56
2022-11-23T23:04:03.013Z,11.52
2022-11-23T23:06:34.941Z,11.47
2022-11-23T23:09:05.750Z,11.13
2022-11-23T23:11:35.485Z,11.03
2022-11-23T23:14:05.344Z,11.20
2022-11-23T23:16:33.854Z,11.31
2022-11-23T23:19:03.661Z,11.27
2022-11-23T23:21:31.956Z,11.33
2022-11-23T23:24:02.306Z,11.40
2022-11-23T23:26:30.965Z,11.38
2022-11-23T23:29:01.021Z,11.24
2022-11-23T23:31:31.183Z,11.28
2022-11-23T23:34:00.692Z,11.26
2022-11-23T23:36:29.737Z,11.28
2022-11-23T23:38:58.526Z,11.19
2022-11-23T23:41:26.642Z,10.90
2022-11-23T23:43:54.833Z,10.92
2022-11-23T23:46:23.115Z,11.11
2022-11-23T23:48:53.145Z,11.17
2022-11-23T23:51:23.142Z,11.16
2022-11-23T23:53:52.209Z,11.18
2022-11-23T23:56:22.429Z,11.10
2022-11-23T23:58:51.222Z,11.15
